createdAt,value
2022-08-27T00:00:48.669Z,3.42
2022-08-27T00:03:16.226Z,3.33
2022-08-27T00:05:43.491Z,3.83
2022-08-27T00:08:13.007Z,2.95
2022-08-27T00:10:41.453Z,3.83
2022-08-27T00:13:08.928Z,3.95
2022-08-27T00:15:35.857Z,3.15
2022-08-27T00:18:03.043Z,3.63
2022-08-27T00:20:30.384Z,6.40
2022-08-27T00:22:57.460Z,8.75
2022-08-27T00:25:25.127Z,3.63
2022-08-27T00:27:52.091Z,3.58
2022-08-27T00:30:21.291Z,3.20
2022-08-27T00:32:48.753Z,2.53
2022-08-27T00:35:16.841Z,3.45
2022-08-27T00:37:44.886Z,4.00
2022-08-27T00:40:17.524Z,3.22
2022-08-27T00:42:46.191Z,3.80
2022-08-27T00:45:19.408Z,3.22
2022-08-27T00:47:50.167Z,3.95
2022-08-27T00:50:25.082Z,3.67
2022-08-27T00:52:59.350Z,2.45
2022-08-27T00:56:03.010Z,3.83
2022-08-27T00:58:34.165Z,4.05
2022-08-27T01:01:02.244Z,3.42
2022-08-27T01:03:29.215Z,3.43
2022-08-27T01:05:58.989Z,3.70
2022-08-27T01:08:29.491Z,5.20
2022-08-27T01:10:58.617Z,6.32
2022-08-27T01:13:59.333Z,4.38
2022-08-27T01:16:21.561Z,3.92
2022-08-27T01:18:50.850Z,9.93
2022-08-27T01:21:20.963Z,4.20
2022-08-27T01:24:02.097Z,19.15
2022-08-27T01:26:30.479Z,5.50
2022-08-27T01:28:58.545Z,3.75
2022-08-27T01:31:25.514Z,4.03
2022-08-27T01:34:01.642Z,4.18
2022-08-27T01:36:29.391Z,4.65
2022-08-27T01:38:56.457Z,5.88
2022-08-27T01:41:25.567Z,4.60
2022-08-27T01:43:52.667Z,4.80
2022-08-27T01:46:24.115Z,21.70
2022-08-27T01:48:51.343Z,6.80
2022-08-27T01:51:18.590Z,7.40
2022-08-27T01:53:45.674Z,12.05
2022-08-27T01:56:13.144Z,7.40
2022-08-27T01:58:40.479Z,6.18
2022-08-27T02:01:12.234Z,6.10
2022-08-27T02:03:40.778Z,5.65
2022-08-27T02:06:10.057Z,4.68
2022-08-27T02:08:37.106Z,4.95
2022-08-27T02:11:04.928Z,4.72
2022-08-27T02:13:31.938Z,6.45
2022-08-27T02:15:58.905Z,4.00
2022-08-27T02:18:26.110Z,4.93
2022-08-27T02:20:53.066Z,4.00
2022-08-27T02:23:19.970Z,3.95
2022-08-27T02:25:47.471Z,6.25
2022-08-27T02:28:14.805Z,3.72
2022-08-27T02:30:41.789Z,4.60
2022-08-27T02:33:09.927Z,4.88
2022-08-27T02:35:44.062Z,3.92
2022-08-27T02:38:13.199Z,3.72
2022-08-27T02:40:40.673Z,3.22
2022-08-27T02:43:07.947Z,2.97
2022-08-27T02:45:37.619Z,4.03
2022-08-27T02:48:05.659Z,3.95
2022-08-27T02:50:32.585Z,3.53
2022-08-27T02:53:02.437Z,3.33
2022-08-27T02:55:29.985Z,3.72
2022-08-27T02:57:56.998Z,3.70
2022-08-27T03:00:25.694Z,4.43
2022-08-27T03:02:52.643Z,4.32
2022-08-27T03:05:19.850Z,3.60
2022-08-27T03:07:46.948Z,3.80
2022-08-27T03:10:16.144Z,5.05
2022-08-27T03:12:44.454Z,5.38
2022-08-27T03:15:15.704Z,4.13
2022-08-27T03:18:01.945Z,6.57
2022-08-27T03:20:29.965Z,4.63
2022-08-27T03:22:57.083Z,4.50
2022-08-27T03:25:24.156Z,4.55
2022-08-27T03:27:51.506Z,4.25
2022-08-27T03:30:21.145Z,5.18
2022-08-27T03:32:48.409Z,5.68
2022-08-27T03:35:16.067Z,4.55
2022-08-27T03:37:43.587Z,4.85
2022-08-27T03:40:11.539Z,5.93
2022-08-27T03:42:40.854Z,4.72
2022-08-27T03:45:09.118Z,4.32
2022-08-27T03:47:37.192Z,4.82
2022-08-27T03:50:06.168Z,4.15
2022-08-27T03:52:34.323Z,4.22
2022-08-27T03:55:01.844Z,4.33
2022-08-27T03:57:28.865Z,3.72
2022-08-27T03:59:57.197Z,4.72
2022-08-27T04:02:24.210Z,5.20
2022-08-27T04:04:51.186Z,4.95
2022-08-27T04:07:18.425Z,6.07
2022-08-27T04:09:45.377Z,6.20
2022-08-27T04:12:12.357Z,5.07
2022-08-27T04:14:39.359Z,5.43
2022-08-27T04:17:06.686Z,8.80
2022-08-27T04:19:34.337Z,12.88
2022-08-27T04:22:03.441Z,18.63
2022-08-27T04:27:00.077Z,22.83
2022-08-27T04:29:27.847Z,15.50
2022-08-27T04:31:54.975Z,13.73
2022-08-27T04:34:22.316Z,16.33
2022-08-27T04:36:50.399Z,12.90
2022-08-27T04:39:17.551Z,20.87
2022-08-27T04:41:44.474Z,10.88
2022-08-27T04:44:12.392Z,11.32
2022-08-27T04:46:40.926Z,9.88
2022-08-27T04:49:13.679Z,10.57
2022-08-27T04:51:43.390Z,8.90
2022-08-27T04:54:10.828Z,8.07
2022-08-27T04:56:38.231Z,8.40
2022-08-27T04:59:08.928Z,7.15
2022-08-27T05:01:38.160Z,5.75
2022-08-27T05:04:05.780Z,5.18
2022-08-27T05:06:33.978Z,5.53
2022-08-27T05:09:00.991Z,4.72
2022-08-27T05:11:32.493Z,5.07
2022-08-27T05:13:59.582Z,7.38
2022-08-27T05:16:26.538Z,6.90
2022-08-27T05:18:53.859Z,7.03
2022-08-27T05:21:24.318Z,9.50
2022-08-27T05:23:52.590Z,7.28
2022-08-27T05:26:19.571Z,12.15
2022-08-27T05:28:46.748Z,14.15
2022-08-27T05:31:15.308Z,5.72
2022-08-27T05:33:42.983Z,5.35
2022-08-27T05:36:17.600Z,5.38
2022-08-27T05:38:44.541Z,5.60
2022-08-27T05:41:17.502Z,6.03
2022-08-27T05:43:49.884Z,5.90
2022-08-27T05:46:20.560Z,6.50
2022-08-27T05:48:49.077Z,5.90
2022-08-27T05:51:26.133Z,6.30
2022-08-27T05:53:59.287Z,5.18
2022-08-27T05:56:28.859Z,5.55
2022-08-27T05:59:14.573Z,5.40
2022-08-27T06:01:49.463Z,5.72
2022-08-27T06:04:17.988Z,4.93
2022-08-27T06:06:46.059Z,4.03
2022-08-27T06:09:16.296Z,4.65
2022-08-27T06:11:43.607Z,4.72
2022-08-27T06:14:10.885Z,4.68
2022-08-27T06:16:39.031Z,4.53
2022-08-27T06:19:07.443Z,4.13
2022-08-27T06:21:34.893Z,5.03
2022-08-27T06:24:02.022Z,4.05
2022-08-27T06:26:28.998Z,4.65
2022-08-27T06:28:56.219Z,4.45
2022-08-27T06:31:26.423Z,4.55
2022-08-27T06:33:55.318Z,4.50
2022-08-27T06:38:52.696Z,3.78
2022-08-27T06:41:23.974Z,4.18
2022-08-27T06:43:52.387Z,4.60
2022-08-27T06:46:25.765Z,4.65
2022-08-27T06:48:59.083Z,3.65
2022-08-27T06:51:29.934Z,4.05
2022-08-27T06:53:59.411Z,4.32
2022-08-27T06:56:26.905Z,3.90
2022-08-27T06:58:55.873Z,4.82
